createdAt,value
2018-02-13T00:00:28.255Z,1012.75
2018-02-13T00:01:30.052Z,1012.80
2018-02-13T00:02:29.093Z,1012.79
2018-02-13T00:03:28.199Z,1012.80
2018-02-13T00:04:28.175Z,1012.77
2018-02-13T00:05:28.153Z,1012.74
2018-02-13T00:06:28.131Z,1012.75
2018-02-13T00:07:28.125Z,1012.75
2018-02-13T00:08:28.109Z,1012.72
2018-02-13T00:09:28.069Z,1012.74
2018-02-13T00:10:28.049Z,1012.74
2018-02-13T00:11:28.038Z,1012.77
2018-02-13T00:12:28.026Z,1012.73
2018-02-13T00:13:29.056Z,1012.72
2018-02-13T00:14:27.964Z,1012.70
2018-02-13T00:15:27.944Z,1012.72
2018-02-13T00:16:27.925Z,1012.77
2018-02-13T00:17:28.220Z,1012.78
2018-02-13T00:18:27.902Z,1012.75
2018-02-13T00:19:27.862Z,1012.70
2018-02-13T00:20:27.840Z,1012.71
2018-02-13T00:21:27.820Z,1012.72
2018-02-13T00:22:27.798Z,1012.72
2018-02-13T00:23:27.794Z,1012.71
2018-02-13T00:24:27.761Z,1012.74
2018-02-13T00:25:27.737Z,1012.70
2018-02-13T00:26:27.715Z,1012.72
2018-02-13T00:27:27.696Z,1012.72
2018-02-13T00:28:27.690Z,1012.74
2018-02-13T00:29:27.654Z,1012.74
2018-02-13T00:30:27.633Z,1012.76
2018-02-13T00:31:27.610Z,1012.73
2018-02-13T00:32:27.590Z,1012.75
2018-02-13T00:33:27.570Z,1012.75
2018-02-13T00:34:27.568Z,1012.68
2018-02-13T00:35:27.546Z,1012.73
2018-02-13T00:36:27.504Z,1012.68
2018-02-13T00:37:27.490Z,1012.68
2018-02-13T00:38:27.463Z,1012.69
2018-02-13T00:39:27.449Z,1012.67
2018-02-13T00:40:27.426Z,1012.65
2018-02-13T00:41:27.414Z,1012.66
2018-02-13T00:42:27.383Z,1012.63
2018-02-13T00:43:28.089Z,1012.63
2018-02-13T00:44:27.361Z,1012.66
2018-02-13T00:45:27.349Z,1012.67
2018-02-13T00:46:27.316Z,1012.66
2018-02-13T00:47:27.338Z,1012.65
2018-02-13T00:48:27.270Z,1012.65
2018-02-13T00:49:27.236Z,1012.67
2018-02-13T00:50:27.227Z,1012.68
2018-02-13T00:51:27.211Z,1012.68
2018-02-13T00:52:27.176Z,1012.68
2018-02-13T00:53:27.155Z,1012.68
2018-02-13T00:54:27.137Z,1012.67
2018-02-13T00:55:27.131Z,1012.63
2018-02-13T00:56:27.090Z,1012.67
2018-02-13T00:57:27.088Z,1012.64
2018-02-13T00:58:27.050Z,1012.63
2018-02-13T00:59:27.029Z,1012.60
2018-02-13T01:00:27.017Z,1012.64
2018-02-13T01:01:27.090Z,1012.64
2018-02-13T01:02:26.963Z,1012.56
2018-02-13T01:03:26.948Z,1012.64
2018-02-13T01:04:26.925Z,1012.60
2018-02-13T01:05:26.907Z,1012.61
2018-02-13T01:06:26.899Z,1012.62
2018-02-13T01:07:26.865Z,1012.61
2018-02-13T01:08:26.841Z,1012.60
2018-02-13T01:09:26.822Z,1012.65
2018-02-13T01:10:26.831Z,1012.64
2018-02-13T01:11:26.779Z,1012.58
2018-02-13T01:12:26.773Z,1012.60
2018-02-13T01:13:26.741Z,1012.56
2018-02-13T01:14:26.717Z,1012.60
2018-02-13T01:15:26.700Z,1012.57
2018-02-13T01:16:26.691Z,1012.54
2018-02-13T01:17:26.655Z,1012.52
2018-02-13T01:18:26.677Z,1012.53
2018-02-13T01:19:26.611Z,1012.53
2018-02-13T01:20:26.608Z,1012.54
2018-02-13T01:21:26.575Z,1012.56
2018-02-13T01:22:26.562Z,1012.54
2018-02-13T01:23:26.530Z,1012.55
2018-02-13T01:24:26.509Z,1012.54
2018-02-13T01:25:26.486Z,1012.55
2018-02-13T01:26:26.469Z,1012.53
2018-02-13T01:27:26.472Z,1012.56
2018-02-13T01:28:26.435Z,1012.54
2018-02-13T01:29:26.412Z,1012.51
2018-02-13T01:30:26.386Z,1012.51
2018-02-13T01:31:26.373Z,1012.51
2018-02-13T01:32:26.336Z,1012.52
2018-02-13T01:33:26.340Z,1012.52
2018-02-13T01:34:26.299Z,1012.51
2018-02-13T01:35:26.282Z,1012.53
2018-02-13T01:36:26.259Z,1012.50
2018-02-13T01:37:26.233Z,1012.50
2018-02-13T01:38:26.212Z,1012.48
2018-02-13T01:39:26.213Z,1012.51
2018-02-13T01:40:26.174Z,1012.52
2018-02-13T01:41:26.157Z,1012.53
2018-02-13T01:42:26.132Z,1012.51
2018-02-13T01:43:26.116Z,1012.49
2018-02-13T01:44:26.105Z,1012.49
2018-02-13T01:45:26.068Z,1012.45
2018-02-13T01:46:26.051Z,1012.47
2018-02-13T01:47:26.033Z,1012.47
2018-02-13T01:48:26.006Z,1012.47
2018-02-13T01:49:25.999Z,1012.46
2018-02-13T01:50:25.981Z,1012.45
2018-02-13T01:51:25.947Z,1012.45
2018-02-13T01:52:25.921Z,1012.41
2018-02-13T01:53:25.903Z,1012.43
2018-02-13T01:54:25.879Z,1012.41
2018-02-13T01:55:25.859Z,1012.41
2018-02-13T01:56:25.857Z,1012.38
2018-02-13T01:57:25.819Z,1012.36
2018-02-13T01:58:25.797Z,1012.37
2018-02-13T01:59:25.782Z,1012.29
2018-02-13T02:00:25.754Z,1012.34
2018-02-13T02:01:25.750Z,1012.35
2018-02-13T02:02:25.714Z,1012.29
2018-02-13T02:03:25.691Z,1012.30
2018-02-13T02:04:25.673Z,1012.30
2018-02-13T02:05:25.665Z,1012.33
2018-02-13T02:06:25.628Z,1012.32
2018-02-13T02:07:25.607Z,1012.32
2018-02-13T02:08:25.584Z,1012.31
2018-02-13T02:09:25.566Z,1012.32
2018-02-13T02:10:25.546Z,1012.28
2018-02-13T02:11:25.543Z,1012.29
2018-02-13T02:12:25.501Z,1012.27
2018-02-13T02:13:25.487Z,1012.28
2018-02-13T02:14:25.460Z,1012.22
2018-02-13T02:15:25.438Z,1012.25
2018-02-13T02:16:25.431Z,1012.22
2018-02-13T02:17:25.413Z,1012.28
2018-02-13T02:18:25.374Z,1012.26
2018-02-13T02:19:25.352Z,1012.22
2018-02-13T02:20:25.334Z,1012.21
2018-02-13T02:21:25.307Z,1012.23
2018-02-13T02:22:25.291Z,1012.21
2018-02-13T02:23:25.287Z,1012.22
2018-02-13T02:24:25.248Z,1012.21
2018-02-13T02:25:25.226Z,1012.22
2018-02-13T02:26:27.061Z,1012.22
2018-02-13T02:27:25.186Z,1012.20
2018-02-13T02:28:25.179Z,1012.21
2018-02-13T02:29:25.154Z,1012.19
2018-02-13T02:30:25.120Z,1012.18
2018-02-13T02:31:25.108Z,1012.20
2018-02-13T02:32:25.078Z,1012.15
2018-02-13T02:33:25.069Z,1012.17
2018-02-13T02:34:25.054Z,1012.16
2018-02-13T02:35:25.014Z,1012.17
2018-02-13T02:36:24.992Z,1012.13
2018-02-13T02:37:24.981Z,1012.18
2018-02-13T02:38:24.967Z,1012.16
2018-02-13T02:39:24.932Z,1012.16
2018-02-13T02:40:24.911Z,1012.14
2018-02-13T02:41:24.884Z,1012.11
2018-02-13T02:42:24.870Z,1012.11
2018-02-13T02:43:24.862Z,1012.09
2018-02-13T02:44:24.838Z,1012.07
2018-02-13T02:45:24.823Z,1012.07
2018-02-13T02:46:24.780Z,1012.10
2018-02-13T02:47:24.771Z,1012.07
2018-02-13T02:48:24.738Z,1012.07
2018-02-13T02:49:24.718Z,1012.06
2018-02-13T02:50:24.695Z,1012.02
2018-02-13T02:51:24.689Z,1012.02
2018-02-13T02:52:24.654Z,1011.98
2018-02-13T02:53:24.628Z,1012.01
2018-02-13T02:54:24.611Z,1012.00
2018-02-13T02:55:24.590Z,1011.98
2018-02-13T02:56:24.589Z,1011.99
2018-02-13T02:57:24.546Z,1011.96
2018-02-13T02:58:24.528Z,1011.96
2018-02-13T02:59:24.517Z,1011.94
2018-02-13T03:00:24.490Z,1011.92
2018-02-13T03:01:24.459Z,1011.94
2018-02-13T03:02:24.903Z,1011.90
2018-02-13T03:03:24.427Z,1011.88
2018-02-13T03:04:24.403Z,1011.88
2018-02-13T03:05:24.378Z,1011.85
2018-02-13T03:06:24.364Z,1011.83
2018-02-13T03:07:24.338Z,1011.80
2018-02-13T03:08:24.330Z,1011.79
2018-02-13T03:09:25.126Z,1011.81
2018-02-13T03:10:24.273Z,1011.79
2018-02-13T03:11:24.268Z,1011.78
2018-02-13T03:12:24.229Z,1011.77
2018-02-13T03:13:24.207Z,1011.79
2018-02-13T03:14:24.190Z,1011.76
2018-02-13T03:15:24.165Z,1011.80
2018-02-13T03:16:24.154Z,1011.76
2018-02-13T03:17:24.122Z,1011.75
2018-02-13T03:18:24.116Z,1011.80
2018-02-13T03:19:24.077Z,1011.78
2018-02-13T03:20:24.066Z,1011.81
2018-02-13T03:21:24.036Z,1011.78
2018-02-13T03:22:24.016Z,1011.76
2018-02-13T03:23:24.015Z,1011.73
2018-02-13T03:24:23.972Z,1011.75
2018-02-13T03:25:23.951Z,1011.77
2018-02-13T03:26:23.935Z,1011.77
2018-02-13T03:27:23.913Z,1011.75
2018-02-13T03:28:23.913Z,1011.76
2018-02-13T03:29:23.869Z,1011.76
2018-02-13T03:30:23.847Z,1011.76
2018-02-13T03:31:23.833Z,1011.72
2018-02-13T03:32:23.798Z,1011.70
2018-02-13T03:33:24.055Z,1011.70
2018-02-13T03:34:23.759Z,1011.70
2018-02-13T03:35:23.734Z,1011.67
2018-02-13T03:36:23.717Z,1011.67
2018-02-13T03:37:23.688Z,1011.66
2018-02-13T03:38:23.682Z,1011.63
2018-02-13T03:39:23.667Z,1011.66
2018-02-13T03:40:23.643Z,1011.63
2018-02-13T03:41:23.608Z,1011.61
2018-02-13T03:42:23.586Z,1011.60
2018-02-13T03:43:23.568Z,1011.60
2018-02-13T03:44:23.544Z,1011.55
2018-02-13T03:45:23.540Z,1011.56
2018-02-13T03:46:23.506Z,1011.54
2018-02-13T03:47:23.485Z,1011.53
2018-02-13T03:48:23.462Z,1011.51
2018-02-13T03:49:23.438Z,1011.50
2018-02-13T03:50:23.433Z,1011.51
2018-02-13T03:51:23.390Z,1011.48
2018-02-13T03:52:23.377Z,1011.48
2018-02-13T03:53:23.349Z,1011.45
2018-02-13T03:54:23.335Z,1011.44
2018-02-13T03:55:23.311Z,1011.43
2018-02-13T03:56:23.306Z,1011.44
2018-02-13T03:57:23.265Z,1011.41
2018-02-13T03:58:23.247Z,1011.39
2018-02-13T03:59:23.228Z,1011.41
2018-02-13T04:00:23.208Z,1011.41
2018-02-13T04:01:23.202Z,1011.38
2018-02-13T04:02:23.162Z,1011.37
2018-02-13T04:03:23.142Z,1011.38
2018-02-13T04:04:23.119Z,1011.40
2018-02-13T04:05:23.102Z,1011.38
2018-02-13T04:06:23.087Z,1011.36
2018-02-13T04:07:23.072Z,1011.38
2018-02-13T04:08:23.031Z,1011.31
2018-02-13T04:09:23.014Z,1011.35
2018-02-13T04:10:22.992Z,1011.36
2018-02-13T04:11:22.978Z,1011.34
2018-02-13T04:12:22.967Z,1011.31
2018-02-13T04:13:22.923Z,1011.33
2018-02-13T04:14:22.915Z,1011.33
2018-02-13T04:15:22.885Z,1011.32
2018-02-13T04:16:22.885Z,1011.33
2018-02-13T04:17:22.857Z,1011.33
2018-02-13T04:18:22.821Z,1011.35
2018-02-13T04:19:22.798Z,1011.31
2018-02-13T04:20:22.779Z,1011.31
2018-02-13T04:21:22.775Z,1011.30
2018-02-13T04:22:22.734Z,1011.30
2018-02-13T04:23:22.716Z,1011.28
2018-02-13T04:24:22.690Z,1011.31
2018-02-13T04:25:22.673Z,1011.27
2018-02-13T04:26:22.648Z,1011.26
2018-02-13T04:27:22.644Z,1011.26
2018-02-13T04:28:22.616Z,1011.30
2018-02-13T04:29:22.585Z,1011.28
2018-02-13T04:30:22.564Z,1011.31
2018-02-13T04:31:22.574Z,1011.32
2018-02-13T04:32:23.134Z,1011.31
2018-02-13T04:33:22.498Z,1011.31
2018-02-13T04:34:22.485Z,1011.30
2018-02-13T04:35:22.460Z,1011.30
2018-02-13T04:36:22.441Z,1011.33
2018-02-13T04:37:22.430Z,1011.30
2018-02-13T04:38:22.396Z,1011.25
2018-02-13T04:39:22.375Z,1011.23
2018-02-13T04:40:22.353Z,1011.24
2018-02-13T04:41:22.330Z,1011.22
2018-02-13T04:42:22.326Z,1011.18
2018-02-13T04:43:22.293Z,1011.25
2018-02-13T04:44:22.268Z,1011.19
2018-02-13T04:45:22.244Z,1011.17
2018-02-13T04:46:22.223Z,1011.15
2018-02-13T04:47:22.215Z,1011.19
2018-02-13T04:48:22.204Z,1011.16
2018-02-13T04:49:22.159Z,1011.15
2018-02-13T04:50:22.135Z,1011.14
2018-02-13T04:51:22.110Z,1011.14
2018-02-13T04:52:22.088Z,1011.14
2018-02-13T04:53:22.102Z,1011.10
2018-02-13T04:54:22.064Z,1011.11
2018-02-13T04:55:22.027Z,1011.14
2018-02-13T04:56:22.016Z,1011.09
2018-02-13T04:57:21.981Z,1011.08
2018-02-13T04:58:21.980Z,1011.07
2018-02-13T04:59:21.959Z,1011.06
2018-02-13T05:00:21.922Z,1011.08
2018-02-13T05:01:21.900Z,1011.04
2018-02-13T05:02:21.879Z,1011.06
2018-02-13T05:03:21.853Z,1011.04
2018-02-13T05:04:21.858Z,1011.06
2018-02-13T05:05:21.815Z,1011.02
2018-02-13T05:06:21.791Z,1010.99
2018-02-13T05:07:21.770Z,1011.01
2018-02-13T05:08:21.752Z,1011.00
2018-02-13T05:09:21.744Z,1010.98
2018-02-13T05:10:21.705Z,1010.99
2018-02-13T05:11:21.688Z,1010.98
2018-02-13T05:12:21.668Z,1010.91
2018-02-13T05:13:21.641Z,1010.90
2018-02-13T05:14:21.617Z,1010.90
2018-02-13T05:15:21.618Z,1010.91
2018-02-13T05:16:21.580Z,1010.92
2018-02-13T05:17:21.553Z,1010.90
2018-02-13T05:18:21.536Z,1010.91
2018-02-13T05:19:21.521Z,1010.85
2018-02-13T05:20:21.508Z,1010.90
2018-02-13T05:21:21.469Z,1010.87
2018-02-13T05:22:21.448Z,1010.89
2018-02-13T05:23:21.437Z,1010.85
2018-02-13T05:24:21.406Z,1010.86
2018-02-13T05:25:21.398Z,1010.82
2018-02-13T05:26:21.377Z,1010.87
2018-02-13T05:27:21.345Z,1010.91
2018-02-13T05:28:21.319Z,1010.90
2018-02-13T05:29:21.303Z,1010.89
2018-02-13T05:30:21.277Z,1010.86
2018-02-13T05:31:21.278Z,1010.88
2018-02-13T05:32:21.233Z,1010.91
2018-02-13T05:33:21.208Z,1010.88
2018-02-13T05:34:21.190Z,1010.89
2018-02-13T05:35:21.170Z,1010.93
2018-02-13T05:36:21.147Z,1010.89
2018-02-13T05:37:21.142Z,1010.92
2018-02-13T05:38:21.105Z,1010.90
2018-02-13T05:39:21.081Z,1010.92
2018-02-13T05:40:21.056Z,1010.93
2018-02-13T05:41:21.098Z,1010.96
2018-02-13T05:42:21.102Z,1010.94
2018-02-13T05:43:21.075Z,1010.93
2018-02-13T05:44:21.609Z,1010.93
2018-02-13T05:45:20.959Z,1010.92
2018-02-13T05:46:20.937Z,1010.93
2018-02-13T05:47:20.930Z,1010.95
2018-02-13T05:48:20.892Z,1010.94
2018-02-13T05:49:20.922Z,1010.92
2018-02-13T05:50:20.886Z,1010.90
2018-02-13T05:51:20.851Z,1010.94
2018-02-13T05:52:20.810Z,1010.90
2018-02-13T05:53:20.833Z,1010.91
2018-02-13T05:54:20.780Z,1010.93
2018-02-13T05:55:20.788Z,1010.93
2018-02-13T05:56:20.728Z,1010.90
2018-02-13T05:57:20.718Z,1010.92
2018-02-13T05:58:20.697Z,1010.89
2018-02-13T05:59:20.660Z,1010.90
2018-02-13T06:00:20.655Z,1010.86
2018-02-13T06:01:21.563Z,1010.90
2018-02-13T06:02:20.591Z,1010.87
2018-02-13T06:03:20.594Z,1010.85
2018-02-13T06:04:20.557Z,1010.85
2018-02-13T06:05:20.542Z,1010.83
2018-02-13T06:06:21.084Z,1010.81
2018-02-13T06:07:20.511Z,1010.80
2018-02-13T06:08:20.467Z,1010.81
2018-02-13T06:09:20.440Z,1010.81
2018-02-13T06:10:20.464Z,1010.77
2018-02-13T06:11:20.406Z,1010.74
2018-02-13T06:12:20.434Z,1010.73
2018-02-13T06:13:20.369Z,1010.75
2018-02-13T06:14:20.336Z,1010.72
2018-02-13T06:15:20.320Z,1010.74
2018-02-13T06:16:20.329Z,1010.77
2018-02-13T06:17:20.272Z,1010.71
2018-02-13T06:18:20.251Z,1010.66
2018-02-13T06:19:20.254Z,1010.71
2018-02-13T06:20:20.232Z,1010.71
2018-02-13T06:21:20.200Z,1010.70
2018-02-13T06:22:20.177Z,1010.69
2018-02-13T06:23:20.160Z,1010.71
2018-02-13T06:24:20.119Z,1010.70
2018-02-13T06:25:20.103Z,1010.71
2018-02-13T06:26:20.171Z,1010.74
2018-02-13T06:27:20.096Z,1010.69
2018-02-13T06:28:20.065Z,1010.71
2018-02-13T06:29:20.019Z,1010.70
2018-02-13T06:30:20.036Z,1010.73
2018-02-13T06:31:20.000Z,1010.70
2018-02-13T06:32:19.955Z,1010.71
2018-02-13T06:33:19.945Z,1010.73
2018-02-13T06:34:19.924Z,1010.72
2018-02-13T06:35:19.933Z,1010.72
2018-02-13T06:36:19.902Z,1010.70
2018-02-13T06:37:19.873Z,1010.70
2018-02-13T06:38:19.837Z,1010.72
2018-02-13T06:39:19.852Z,1010.68
2018-02-13T06:40:19.792Z,1010.67
2018-02-13T06:41:19.797Z,1010.67
2018-02-13T06:42:19.764Z,1010.65
2018-02-13T06:43:19.749Z,1010.67
2018-02-13T06:44:19.690Z,1010.68
2018-02-13T06:45:19.730Z,1010.65
2018-02-13T06:46:19.725Z,1010.69
2018-02-13T06:47:20.214Z,1010.68
2018-02-13T06:48:19.644Z,1010.67
2018-02-13T06:49:19.598Z,1010.68
2018-02-13T06:50:19.558Z,1010.71
2018-02-13T06:51:19.541Z,1010.69
2018-02-13T06:52:19.528Z,1010.70
2018-02-13T06:53:19.512Z,1010.69
2018-02-13T06:54:19.484Z,1010.69
2018-02-13T06:55:19.452Z,1010.68
2018-02-13T06:56:19.430Z,1010.73
2018-02-13T06:57:19.433Z,1010.72
2018-02-13T06:58:19.386Z,1010.70
2018-02-13T06:59:19.393Z,1010.72
2018-02-13T07:00:19.358Z,1010.72
2018-02-13T07:01:19.322Z,1010.70
2018-02-13T07:02:19.303Z,1010.72
2018-02-13T07:03:19.281Z,1010.72
2018-02-13T07:04:19.272Z,1010.72
2018-02-13T07:05:19.240Z,1010.74
2018-02-13T07:06:19.215Z,1010.66
2018-02-13T07:07:19.194Z,1010.72
2018-02-13T07:08:20.066Z,1010.68
2018-02-13T07:09:19.168Z,1010.72
2018-02-13T07:10:19.136Z,1010.74
2018-02-13T07:11:19.113Z,1010.73
2018-02-13T07:12:19.087Z,1010.73
2018-02-13T07:13:19.062Z,1010.75
2018-02-13T07:14:19.062Z,1010.73
2018-02-13T07:15:19.031Z,1010.73
2018-02-13T07:16:18.997Z,1010.77
2018-02-13T07:17:18.992Z,1010.73
2018-02-13T07:18:18.965Z,1010.73
2018-02-13T07:19:18.937Z,1010.76
2018-02-13T07:20:18.969Z,1010.75
2018-02-13T07:21:18.898Z,1010.73
2018-02-13T07:22:18.881Z,1010.74
2018-02-13T07:23:18.850Z,1010.74
2018-02-13T07:24:18.834Z,1010.73
2018-02-13T07:25:18.801Z,1010.70
2018-02-13T07:26:18.784Z,1010.71
2018-02-13T07:27:18.779Z,1010.71
2018-02-13T07:28:18.739Z,1010.69
2018-02-13T07:29:18.722Z,1010.75
2018-02-13T07:30:18.697Z,1010.72
2018-02-13T07:31:18.677Z,1010.71
2018-02-13T07:32:18.653Z,1010.76
2018-02-13T07:33:18.647Z,1010.75
2018-02-13T07:34:18.611Z,1010.74
2018-02-13T07:35:18.592Z,1010.77
2018-02-13T07:36:18.566Z,1010.73
2018-02-13T07:37:18.548Z,1010.74
2018-02-13T07:38:18.539Z,1010.71
2018-02-13T07:39:18.524Z,1010.70
2018-02-13T07:40:18.483Z,1010.72
2018-02-13T07:41:18.462Z,1010.72
2018-02-13T07:42:18.441Z,1010.76
2018-02-13T07:43:18.430Z,1010.69
2018-02-13T07:44:18.418Z,1010.71
2018-02-13T07:45:18.387Z,1010.68
2018-02-13T07:46:18.352Z,1010.72
2018-02-13T07:47:18.333Z,1010.72
2018-02-13T07:48:18.321Z,1010.69
2018-02-13T07:49:18.288Z,1010.63
2018-02-13T07:50:18.285Z,1010.66
2018-02-13T07:51:18.252Z,1010.67
2018-02-13T07:52:18.225Z,1010.62
2018-02-13T07:53:18.203Z,1010.61
2018-02-13T07:54:18.183Z,1010.63
2018-02-13T07:55:18.176Z,1010.63
2018-02-13T07:56:18.155Z,1010.59
2018-02-13T07:57:18.115Z,1010.60
2018-02-13T07:58:18.098Z,1010.59
2018-02-13T07:59:18.075Z,1010.61
2018-02-13T08:00:39.062Z,1010.59
2018-02-13T08:01:18.037Z,1010.56
2018-02-13T08:02:18.103Z,1010.54
2018-02-13T08:03:17.992Z,1010.56
2018-02-13T08:04:17.986Z,1010.56
2018-02-13T08:05:17.947Z,1010.54
2018-02-13T08:06:17.923Z,1010.56
2018-02-13T08:07:17.906Z,1010.57
2018-02-13T08:08:17.893Z,1010.55
2018-02-13T08:09:17.881Z,1010.59
2018-02-13T08:10:17.843Z,1010.54
2018-02-13T08:11:17.819Z,1010.53
2018-02-13T08:12:17.811Z,1010.50
2018-02-13T08:13:17.779Z,1010.51
2018-02-13T08:14:17.759Z,1010.53
2018-02-13T08:15:17.737Z,1010.53
2018-02-13T08:16:17.733Z,1010.49
2018-02-13T08:17:18.568Z,1010.46
2018-02-13T08:18:17.672Z,1010.52
2018-02-13T08:19:17.664Z,1010.48
2018-02-13T08:20:17.628Z,1010.48
2018-02-13T08:21:17.606Z,1010.50
2018-02-13T08:22:17.599Z,1010.52
2018-02-13T08:23:17.568Z,1010.45
2018-02-13T08:24:17.544Z,1010.46
2018-02-13T08:25:17.537Z,1010.45
2018-02-13T08:26:17.503Z,1010.45
2018-02-13T08:27:17.485Z,1010.39
2018-02-13T08:28:17.464Z,1010.43
2018-02-13T08:29:17.439Z,1010.40
2018-02-13T08:30:17.435Z,1010.44
2018-02-13T08:31:17.398Z,1010.43
2018-02-13T08:32:17.377Z,1010.40
2018-02-13T08:33:17.370Z,1010.40
2018-02-13T08:34:18.068Z,1010.37
2018-02-13T08:35:17.315Z,1010.38
2018-02-13T08:36:19.070Z,1010.41
2018-02-13T08:37:17.270Z,1010.34
2018-02-13T08:38:17.255Z,1010.40
2018-02-13T08:39:17.231Z,1010.33
2018-02-13T08:40:17.217Z,1010.41
2018-02-13T08:41:17.187Z,1010.38
2018-02-13T08:42:17.184Z,1010.36
2018-02-13T08:43:17.146Z,1010.37
2018-02-13T08:44:17.161Z,1010.45
2018-02-13T08:45:17.105Z,1010.44
2018-02-13T08:46:17.083Z,1010.40
2018-02-13T08:47:17.083Z,1010.41
2018-02-13T08:48:17.041Z,1010.40
2018-02-13T08:49:17.022Z,1010.44
2018-02-13T08:50:17.001Z,1010.43
2018-02-13T08:51:16.977Z,1010.40
2018-02-13T08:52:16.956Z,1010.41
2018-02-13T08:53:16.953Z,1010.36
2018-02-13T08:54:16.918Z,1010.40
2018-02-13T08:55:16.898Z,1010.38
2018-02-13T08:56:16.874Z,1010.39
2018-02-13T08:57:16.853Z,1010.36
2018-02-13T08:58:16.859Z,1010.41
2018-02-13T08:59:17.572Z,1010.43
2018-02-13T09:00:16.795Z,1010.37
2018-02-13T09:01:16.813Z,1010.39
2018-02-13T09:02:16.779Z,1010.38
2018-02-13T09:03:16.728Z,1010.41
2018-02-13T09:04:16.798Z,1010.42
2018-02-13T09:05:16.686Z,1010.39
2018-02-13T09:06:16.688Z,1010.35
2018-02-13T09:07:16.648Z,1010.35
2018-02-13T09:08:16.666Z,1010.31
2018-02-13T09:09:16.625Z,1010.35
2018-02-13T09:10:16.587Z,1010.28
2018-02-13T09:11:16.588Z,1010.33
2018-02-13T09:12:16.564Z,1010.32
2018-02-13T09:13:16.532Z,1010.28
2018-02-13T09:14:16.525Z,1010.31
2018-02-13T09:15:16.491Z,1010.25
2018-02-13T09:16:17.109Z,1010.26
2018-02-13T09:17:16.511Z,1010.21
2018-02-13T09:18:16.422Z,1010.25
2018-02-13T09:19:16.414Z,1010.20
2018-02-13T09:20:16.441Z,1010.23
2018-02-13T09:21:16.358Z,1010.25
2018-02-13T09:22:16.337Z,1010.24
2018-02-13T09:23:16.333Z,1010.25
2018-02-13T09:24:16.354Z,1010.22
2018-02-13T09:25:16.281Z,1010.22
2018-02-13T09:26:16.264Z,1010.22
2018-02-13T09:27:16.238Z,1010.23
2018-02-13T09:28:16.231Z,1010.29
2018-02-13T09:29:16.229Z,1010.23
2018-02-13T09:30:16.194Z,1010.19
2018-02-13T09:31:16.178Z,1010.20
2018-02-13T09:32:16.141Z,1010.19
2018-02-13T09:33:16.116Z,1010.19
2018-02-13T09:34:16.120Z,1010.18
2018-02-13T09:35:16.074Z,1010.17
2018-02-13T09:36:16.071Z,1010.21
2018-02-13T09:37:16.039Z,1010.24
2018-02-13T09:38:16.026Z,1010.22
2018-02-13T09:39:15.997Z,1010.24
2018-02-13T09:40:16.032Z,1010.26
2018-02-13T09:41:15.992Z,1010.23
2018-02-13T09:42:16.619Z,1010.18
2018-02-13T09:43:15.914Z,1010.20
2018-02-13T09:44:15.893Z,1010.21
2018-02-13T09:45:15.873Z,1010.23
2018-02-13T09:46:15.855Z,1010.25
2018-02-13T09:47:15.865Z,1010.24
2018-02-13T09:48:15.846Z,1010.14
2018-02-13T09:49:15.807Z,1010.25
2018-02-13T09:50:15.788Z,1010.32
2018-02-13T09:51:15.763Z,1010.24
2018-02-13T09:52:15.756Z,1010.23
2018-02-13T09:53:15.719Z,1010.22
2018-02-13T09:54:15.711Z,1010.20
2018-02-13T09:55:15.685Z,1010.20
2018-02-13T09:56:15.661Z,1010.21
2018-02-13T09:57:15.663Z,1010.17
2018-02-13T09:58:15.609Z,1010.18
2018-02-13T09:59:15.590Z,1010.17
2018-02-13T10:00:15.583Z,1010.19
2018-02-13T10:01:15.554Z,1010.20
2018-02-13T10:02:15.557Z,1010.19
2018-02-13T10:03:15.537Z,1010.19
2018-02-13T10:04:15.492Z,1010.19
2018-02-13T10:05:15.471Z,1010.21
2018-02-13T10:06:15.459Z,1010.24
2018-02-13T10:07:15.443Z,1010.17
2018-02-13T10:08:15.491Z,1010.19
2018-02-13T10:09:15.425Z,1010.20
2018-02-13T10:10:15.384Z,1010.16
2018-02-13T10:11:15.422Z,1010.14
2018-02-13T10:12:15.342Z,1010.08
2018-02-13T10:13:15.348Z,1010.12
2018-02-13T10:14:15.327Z,1009.98
2018-02-13T10:15:15.281Z,1010.08
2018-02-13T10:16:15.310Z,1010.01
2018-02-13T10:17:15.250Z,1010.06
2018-02-13T10:18:15.220Z,1010.04
2018-02-13T10:19:15.198Z,1010.09
2018-02-13T10:20:15.220Z,1010.09
2018-02-13T10:21:15.149Z,1010.02
2018-02-13T10:22:15.148Z,1010.01
2018-02-13T10:23:15.183Z,1009.98
2018-02-13T10:24:15.105Z,1009.99
2018-02-13T10:25:15.084Z,1009.97
2018-02-13T10:26:15.578Z,1009.94
2018-02-13T10:27:15.040Z,1009.98
2018-02-13T10:28:15.034Z,1010.01
2018-02-13T10:29:15.012Z,1009.99
2018-02-13T10:30:14.998Z,1009.98
2018-02-13T10:31:14.991Z,1009.95
2018-02-13T10:32:14.971Z,1009.95
2018-02-13T10:33:14.936Z,1009.89
2018-02-13T10:34:14.926Z,1009.89
2018-02-13T10:35:14.884Z,1009.86
2018-02-13T10:36:14.889Z,1009.78
2018-02-13T10:37:14.865Z,1009.85
2018-02-13T10:38:35.871Z,1009.83
2018-02-13T10:39:14.814Z,1009.89
2018-02-13T10:40:14.809Z,1009.79
2018-02-13T10:41:14.800Z,1009.83
2018-02-13T10:42:14.783Z,1009.80
2018-02-13T10:43:14.759Z,1009.75
2018-02-13T10:44:14.764Z,1009.82
2018-02-13T10:45:14.700Z,1009.76
2018-02-13T10:46:14.677Z,1009.84
2018-02-13T10:47:14.684Z,1009.86
2018-02-13T10:48:14.682Z,1009.89
2018-02-13T10:49:14.616Z,1009.90
2018-02-13T10:50:14.624Z,1009.92
2018-02-13T10:51:14.581Z,1009.95
2018-02-13T10:52:14.561Z,1009.97
2018-02-13T10:53:14.551Z,1010.02
2018-02-13T10:54:14.520Z,1009.95
2018-02-13T10:55:14.498Z,1009.93
2018-02-13T10:56:14.494Z,1009.91
2018-02-13T10:57:14.462Z,1009.94
2018-02-13T10:58:14.461Z,1009.97
2018-02-13T10:59:14.426Z,1009.85
2018-02-13T11:00:14.407Z,1009.86
2018-02-13T11:01:14.390Z,1009.90
2018-02-13T11:02:15.083Z,1009.80
2018-02-13T11:03:14.378Z,1009.93
2018-02-13T11:04:14.371Z,1009.92
2018-02-13T11:05:14.390Z,1009.99
2018-02-13T11:06:14.350Z,1009.92
2018-02-13T11:07:14.433Z,1009.90
2018-02-13T11:08:14.375Z,1009.83
2018-02-13T11:09:14.347Z,1009.88
2018-02-13T11:10:14.466Z,1009.90
2018-02-13T11:11:14.253Z,1009.89
2018-02-13T11:12:14.256Z,1009.82
2018-02-13T11:13:14.247Z,1009.88
2018-02-13T11:14:14.259Z,1009.87
2018-02-13T11:15:15.093Z,1009.84
2018-02-13T11:16:14.269Z,1009.80
2018-02-13T11:17:15.169Z,1009.77
2018-02-13T11:18:14.175Z,1009.74
2018-02-13T11:19:14.202Z,1009.73
2018-02-13T11:20:15.130Z,1009.78
2018-02-13T11:21:14.154Z,1009.69
2018-02-13T11:22:14.092Z,1009.73
2018-02-13T11:23:14.104Z,1009.73
2018-02-13T11:24:14.096Z,1009.69
2018-02-13T11:25:14.083Z,1009.66
2018-02-13T11:26:14.102Z,1009.64
2018-02-13T11:27:14.090Z,1009.66
2018-02-13T11:28:14.092Z,1009.57
2018-02-13T11:29:14.043Z,1009.52
2018-02-13T11:30:13.984Z,1009.55
2018-02-13T11:31:13.978Z,1009.52
2018-02-13T11:32:13.948Z,1009.53
2018-02-13T11:33:13.936Z,1009.54
2018-02-13T11:34:13.930Z,1009.52
2018-02-13T11:35:13.906Z,1009.51
2018-02-13T11:36:13.902Z,1009.49
2018-02-13T11:37:13.884Z,1009.41
2018-02-13T11:38:13.874Z,1009.46
2018-02-13T11:39:13.894Z,1009.44
2018-02-13T11:40:13.854Z,1009.42
2018-02-13T11:41:13.834Z,1009.42
2018-02-13T11:42:13.832Z,1009.39
2018-02-13T11:43:13.842Z,1009.40
2018-02-13T11:44:13.799Z,1009.36
2018-02-13T11:45:13.796Z,1009.36
2018-02-13T11:46:13.779Z,1009.34
2018-02-13T11:47:13.767Z,1009.34
2018-02-13T11:48:13.774Z,1009.33
2018-02-13T11:49:13.751Z,1009.28
2018-02-13T11:50:13.737Z,1009.32
2018-02-13T11:51:13.727Z,1009.26
2018-02-13T11:52:13.765Z,1009.30
2018-02-13T11:53:13.718Z,1009.30
2018-02-13T11:54:13.723Z,1009.25
2018-02-13T11:55:13.763Z,1009.28
2018-02-13T11:56:13.674Z,1009.22
2018-02-13T11:57:13.675Z,1009.22
2018-02-13T11:58:13.840Z,1009.23
2018-02-13T11:59:13.832Z,1009.23
2018-02-13T12:00:13.662Z,1009.32
2018-02-13T12:01:13.622Z,1009.25
2018-02-13T12:02:13.609Z,1009.27
2018-02-13T12:03:13.614Z,1009.25
2018-02-13T12:04:13.581Z,1009.23
2018-02-13T12:05:13.599Z,1009.21